sensor_id;sensor_type;location;lat;lon;timestamp;P1;durP1;ratioP1;P2;durP2;ratioP2
64063;SDS011;50314;50.618;10.642;2023-09-19T00:00:18;4.20;;;3.75;;
64063;SDS011;50314;50.618;10.642;2023-09-19T00:03:18;5.05;;;4.00;;
64063;SDS011;50314;50.618;10.642;2023-09-19T00:05:37;4.70;;;3.90;;
64063;SDS011;50314;50.618;10.642;2023-09-19T00:08:04;4.13;;;3.30;;
64063;SDS011;50314;50.618;10.642;2023-09-19T00:10:31;3.85;;;3.28;;
64063;SDS011;50314;50.618;10.642;2023-09-19T00:13:00;4.60;;;3.22;;
64063;SDS011;50314;50.618;10.642;2023-09-19T00:15:30;5.70;;;3.50;;
64063;SDS011;50314;50.618;10.642;2023-09-19T00:18:00;4.38;;;3.40;;
64063;SDS011;50314;50.618;10.642;2023-09-19T00:20:26;3.85;;;3.35;;
64063;SDS011;50314;50.618;10.642;2023-09-19T00:22:51;4.30;;;3.72;;
64063;SDS011;50314;50.618;10.642;2023-09-19T00:25:19;4.22;;;3.30;;
64063;SDS011;50314;50.618;10.642;2023-09-19T00:27:45;4.38;;;3.80;;
64063;SDS011;50314;50.618;10.642;2023-09-19T00:30:13;3.97;;;3.08;;
64063;SDS011;50314;50.618;10.642;2023-09-19T00:32:44;5.03;;;3.90;;
64063;SDS011;50314;50.618;10.642;2023-09-19T00:35:15;3.50;;;3.17;;
64063;SDS011;50314;50.618;10.642;2023-09-19T00:37:41;4.18;;;3.63;;
64063;SDS011;50314;50.618;10.642;2023-09-19T00:40:07;5.85;;;3.92;;
64063;SDS011;50314;50.618;10.642;2023-09-19T00:42:40;3.97;;;3.55;;
64063;SDS011;50314;50.618;10.642;2023-09-19T00:45:10;3.67;;;3.00;;
64063;SDS011;50314;50.618;10.642;2023-09-19T00:47:50;4.35;;;3.88;;
64063;SDS011;50314;50.618;10.642;2023-09-19T00:52:44;4.63;;;3.58;;
64063;SDS011;50314;50.618;10.642;2023-09-19T00:55:11;4.80;;;3.78;;
64063;SDS011;50314;50.618;10.642;2023-09-19T00:57:39;5.10;;;4.15;;
64063;SDS011;50314;50.618;10.642;2023-09-19T01:00:06;4.20;;;3.33;;
64063;SDS011;50314;50.618;10.642;2023-09-19T01:02:36;4.13;;;3.72;;
64063;SDS011;50314;50.618;10.642;2023-09-19T01:05:02;4.88;;;3.78;;
64063;SDS011;50314;50.618;10.642;2023-09-19T01:07:29;5.32;;;3.90;;
64063;SDS011;50314;50.618;10.642;2023-09-19T01:09:59;5.80;;;4.18;;
64063;SDS011;50314;50.618;10.642;2023-09-19T01:15:58;5.38;;;4.88;;
64063;SDS011;50314;50.618;10.642;2023-09-19T01:18:36;3.95;;;3.28;;
64063;SDS011;50314;50.618;10.642;2023-09-19T01:21:27;4.82;;;3.88;;
64063;SDS011;50314;50.618;10.642;2023-09-19T01:24:22;4.28;;;3.65;;
64063;SDS011;50314;50.618;10.642;2023-09-19T01:29:39;5.30;;;3.45;;
64063;SDS011;50314;50.618;10.642;2023-09-19T01:32:10;4.20;;;3.30;;
64063;SDS011;50314;50.618;10.642;2023-09-19T01:34:46;3.28;;;2.90;;
64063;SDS011;50314;50.618;10.642;2023-09-19T01:37:20;3.92;;;3.15;;
64063;SDS011;50314;50.618;10.642;2023-09-19T01:40:03;3.65;;;3.25;;
64063;SDS011;50314;50.618;10.642;2023-09-19T01:43:04;4.10;;;3.10;;
64063;SDS011;50314;50.618;10.642;2023-09-19T01:51:08;3.70;;;2.60;;
64063;SDS011;50314;50.618;10.642;2023-09-19T01:53:50;3.65;;;2.70;;
64063;SDS011;50314;50.618;10.642;2023-09-19T01:56:27;3.33;;;2.65;;
64063;SDS011;50314;50.618;10.642;2023-09-19T01:59:02;3.33;;;2.50;;
64063;SDS011;50314;50.618;10.642;2023-09-19T02:01:32;3.20;;;2.33;;
64063;SDS011;50314;50.618;10.642;2023-09-19T02:03:59;3.40;;;2.42;;
64063;SDS011;50314;50.618;10.642;2023-09-19T02:06:25;3.13;;;2.17;;
64063;SDS011;50314;50.618;10.642;2023-09-19T02:08:52;2.90;;;2.17;;
64063;SDS011;50314;50.618;10.642;2023-09-19T02:11:19;2.85;;;2.10;;
64063;SDS011;50314;50.618;10.642;2023-09-19T02:13:44;2.85;;;2.55;;
64063;SDS011;50314;50.618;10.642;2023-09-19T02:16:10;2.92;;;2.20;;
64063;SDS011;50314;50.618;10.642;2023-09-19T02:18:37;3.55;;;2.33;;
64063;SDS011;50314;50.618;10.642;2023-09-19T02:21:04;2.28;;;2.08;;
64063;SDS011;50314;50.618;10.642;2023-09-19T02:23:31;3.47;;;2.10;;
64063;SDS011;50314;50.618;10.642;2023-09-19T02:28:25;2.58;;;2.20;;
64063;SDS011;50314;50.618;10.642;2023-09-19T02:30:55;3.28;;;2.40;;
64063;SDS011;50314;50.618;10.642;2023-09-19T02:33:21;2.33;;;1.83;;
64063;SDS011;50314;50.618;10.642;2023-09-19T02:35:47;3.28;;;2.97;;
64063;SDS011;50314;50.618;10.642;2023-09-19T02:38:12;2.40;;;2.00;;
64063;SDS011;50314;50.618;10.642;2023-09-19T02:40:39;3.20;;;2.38;;
64063;SDS011;50314;50.618;10.642;2023-09-19T02:43:05;3.10;;;2.22;;
64063;SDS011;50314;50.618;10.642;2023-09-19T02:45:32;2.83;;;2.08;;
64063;SDS011;50314;50.618;10.642;2023-09-19T02:47:57;2.20;;;1.90;;
64063;SDS011;50314;50.618;10.642;2023-09-19T02:50:23;2.72;;;2.17;;
64063;SDS011;50314;50.618;10.642;2023-09-19T02:52:49;2.83;;;2.53;;
64063;SDS011;50314;50.618;10.642;2023-09-19T02:55:15;2.17;;;1.77;;
64063;SDS011;50314;50.618;10.642;2023-09-19T02:57:48;2.20;;;2.00;;
64063;SDS011;50314;50.618;10.642;2023-09-19T03:00:20;2.83;;;2.45;;
64063;SDS011;50314;50.618;10.642;2023-09-19T03:02:50;2.75;;;2.45;;
64063;SDS011;50314;50.618;10.642;2023-09-19T03:05:18;2.35;;;1.77;;
64063;SDS011;50314;50.618;10.642;2023-09-19T03:07:44;2.25;;;1.83;;
64063;SDS011;50314;50.618;10.642;2023-09-19T03:10:12;2.67;;;2.05;;
64063;SDS011;50314;50.618;10.642;2023-09-19T03:12:39;2.20;;;2.00;;
64063;SDS011;50314;50.618;10.642;2023-09-19T03:15:05;2.38;;;1.83;;
64063;SDS011;50314;50.618;10.642;2023-09-19T03:17:33;2.90;;;1.90;;
64063;SDS011;50314;50.618;10.642;2023-09-19T03:19:59;3.10;;;2.00;;
64063;SDS011;50314;50.618;10.642;2023-09-19T03:22:26;2.05;;;1.85;;
64063;SDS011;50314;50.618;10.642;2023-09-19T03:24:52;3.75;;;1.80;;
64063;SDS011;50314;50.618;10.642;2023-09-19T03:30:40;1.88;;;1.70;;
64063;SDS011;50314;50.618;10.642;2023-09-19T03:33:06;1.80;;;1.63;;
64063;SDS011;50314;50.618;10.642;2023-09-19T03:35:31;2.83;;;1.75;;
64063;SDS011;50314;50.618;10.642;2023-09-19T03:37:57;2.50;;;1.63;;
64063;SDS011;50314;50.618;10.642;2023-09-19T03:40:22;2.20;;;1.95;;
64063;SDS011;50314;50.618;10.642;2023-09-19T03:42:48;2.25;;;2.05;;
64063;SDS011;50314;50.618;10.642;2023-09-19T03:45:14;1.50;;;1.35;;
64063;SDS011;50314;50.618;10.642;2023-09-19T03:47:41;2.38;;;2.15;;
64063;SDS011;50314;50.618;10.642;2023-09-19T03:50:07;1.90;;;1.50;;
64063;SDS011;50314;50.618;10.642;2023-09-19T03:52:36;2.35;;;1.30;;
64063;SDS011;50314;50.618;10.642;2023-09-19T03:55:02;1.83;;;1.60;;
64063;SDS011;50314;50.618;10.642;2023-09-19T03:57:30;1.83;;;1.60;;
64063;SDS011;50314;50.618;10.642;2023-09-19T03:59:56;2.42;;;1.58;;
64063;SDS011;50314;50.618;10.642;2023-09-19T04:02:22;1.60;;;1.50;;
64063;SDS011;50314;50.618;10.642;2023-09-19T04:04:49;2.00;;;1.80;;
64063;SDS011;50314;50.618;10.642;2023-09-19T04:07:15;2.10;;;1.50;;
64063;SDS011;50314;50.618;10.642;2023-09-19T04:09:41;2.45;;;1.90;;
64063;SDS011;50314;50.618;10.642;2023-09-19T04:12:07;2.42;;;1.70;;
64063;SDS011;50314;50.618;10.642;2023-09-19T04:19:25;1.63;;;1.40;;
64063;SDS011;50314;50.618;10.642;2023-09-19T04:21:51;1.85;;;1.75;;
64063;SDS011;50314;50.618;10.642;2023-09-19T04:24:16;1.52;;;1.40;;
64063;SDS011;50314;50.618;10.642;2023-09-19T04:26:44;2.03;;;1.83;;
64063;SDS011;50314;50.618;10.642;2023-09-19T04:29:10;1.65;;;1.55;;
64063;SDS011;50314;50.618;10.642;2023-09-19T04:31:36;1.63;;;1.52;;
64063;SDS011;50314;50.618;10.642;2023-09-19T04:43:47;2.15;;;2.00;;
64063;SDS011;50314;50.618;10.642;2023-09-19T04:46:14;1.52;;;1.40;;
64063;SDS011;50314;50.618;10.642;2023-09-19T04:48:40;2.15;;;1.77;;
64063;SDS011;50314;50.618;10.642;2023-09-19T04:51:06;2.20;;;1.60;;
64063;SDS011;50314;50.618;10.642;2023-09-19T04:53:32;2.45;;;1.83;;
64063;SDS011;50314;50.618;10.642;2023-09-19T04:55:57;3.42;;;2.17;;
64063;SDS011;50314;50.618;10.642;2023-09-19T04:58:23;2.65;;;1.70;;
64063;SDS011;50314;50.618;10.642;2023-09-19T05:00:49;2.53;;;2.20;;
64063;SDS011;50314;50.618;10.642;2023-09-19T05:03:16;2.50;;;1.73;;
64063;SDS011;50314;50.618;10.642;2023-09-19T05:05:42;2.75;;;2.53;;
64063;SDS011;50314;50.618;10.642;2023-09-19T05:08:08;2.50;;;1.90;;
64063;SDS011;50314;50.618;10.642;2023-09-19T05:10:34;2.70;;;2.03;;
64063;SDS011;50314;50.618;10.642;2023-09-19T05:13:03;2.35;;;2.03;;
64063;SDS011;50314;50.618;10.642;2023-09-19T05:15:30;2.10;;;1.73;;
64063;SDS011;50314;50.618;10.642;2023-09-19T05:17:56;4.50;;;1.88;;
64063;SDS011;50314;50.618;10.642;2023-09-19T05:20:22;2.95;;;1.80;;
64063;SDS011;50314;50.618;10.642;2023-09-19T05:23:03;1.70;;;1.60;;
64063;SDS011;50314;50.618;10.642;2023-09-19T05:25:32;2.08;;;1.63;;
64063;SDS011;50314;50.618;10.642;2023-09-19T05:28:02;4.50;;;2.05;;
64063;SDS011;50314;50.618;10.642;2023-09-19T05:30:31;3.10;;;1.80;;
64063;SDS011;50314;50.618;10.642;2023-09-19T05:37:51;1.92;;;1.83;;
64063;SDS011;50314;50.618;10.642;2023-09-19T05:40:18;2.50;;;1.60;;
64063;SDS011;50314;50.618;10.642;2023-09-19T05:42:45;2.20;;;2.00;;
64063;SDS011;50314;50.618;10.642;2023-09-19T05:45:12;2.80;;;1.73;;
64063;SDS011;50314;50.618;10.642;2023-09-19T05:47:39;2.30;;;1.65;;
64063;SDS011;50314;50.618;10.642;2023-09-19T05:50:10;1.67;;;1.50;;
64063;SDS011;50314;50.618;10.642;2023-09-19T05:52:36;1.27;;;1.17;;
64063;SDS011;50314;50.618;10.642;2023-09-19T05:55:05;1.67;;;1.23;;
64063;SDS011;50314;50.618;10.642;2023-09-19T05:57:32;2.83;;;1.48;;
64063;SDS011;50314;50.618;10.642;2023-09-19T05:59:58;2.17;;;1.55;;
64063;SDS011;50314;50.618;10.642;2023-09-19T06:02:24;2.35;;;1.65;;
64063;SDS011;50314;50.618;10.642;2023-09-19T06:04:52;4.43;;;2.28;;
64063;SDS011;50314;50.618;10.642;2023-09-19T06:07:18;3.63;;;1.88;;
64063;SDS011;50314;50.618;10.642;2023-09-19T06:09:50;2.83;;;1.90;;
64063;SDS011;50314;50.618;10.642;2023-09-19T06:12:16;3.17;;;1.83;;
64063;SDS011;50314;50.618;10.642;2023-09-19T06:14:42;2.38;;;2.17;;
64063;SDS011;50314;50.618;10.642;2023-09-19T06:17:08;2.80;;;2.17;;
64063;SDS011;50314;50.618;10.642;2023-09-19T06:19:34;3.10;;;1.90;;
64063;SDS011;50314;50.618;10.642;2023-09-19T06:21:59;2.75;;;2.13;;
64063;SDS011;50314;50.618;10.642;2023-09-19T06:24:25;2.10;;;1.70;;
64063;SDS011;50314;50.618;10.642;2023-09-19T06:26:51;2.63;;;2.05;;
64063;SDS011;50314;50.618;10.642;2023-09-19T06:29:18;3.80;;;1.70;;
64063;SDS011;50314;50.618;10.642;2023-09-19T06:31:45;1.88;;;1.77;;
64063;SDS011;50314;50.618;10.642;2023-09-19T06:34:12;2.55;;;1.70;;
64063;SDS011;50314;50.618;10.642;2023-09-19T06:36:40;2.38;;;2.08;;
64063;SDS011;50314;50.618;10.642;2023-09-19T06:39:06;2.17;;;1.50;;
64063;SDS011;50314;50.618;10.642;2023-09-19T06:41:36;1.88;;;1.30;;
64063;SDS011;50314;50.618;10.642;2023-09-19T06:44:04;1.65;;;1.40;;
64063;SDS011;50314;50.618;10.642;2023-09-19T06:46:30;1.55;;;1.35;;
64063;SDS011;50314;50.618;10.642;2023-09-19T06:49:00;1.77;;;1.25;;
64063;SDS011;50314;50.618;10.642;2023-09-19T06:51:28;2.75;;;1.70;;
64063;SDS011;50314;50.618;10.642;2023-09-19T06:53:54;1.73;;;1.50;;
64063;SDS011;50314;50.618;10.642;2023-09-19T06:56:22;2.25;;;1.35;;
64063;SDS011;50314;50.618;10.642;2023-09-19T06:58:49;1.98;;;1.63;;
64063;SDS011;50314;50.618;10.642;2023-09-19T07:01:15;1.75;;;1.52;;
64063;SDS011;50314;50.618;10.642;2023-09-19T07:03:40;2.63;;;1.48;;
64063;SDS011;50314;50.618;10.642;2023-09-19T07:06:06;2.03;;;1.50;;
64063;SDS011;50314;50.618;10.642;2023-09-19T07:08:33;1.58;;;1.48;;
64063;SDS011;50314;50.618;10.642;2023-09-19T07:10:59;2.88;;;1.75;;
64063;SDS011;50314;50.618;10.642;2023-09-19T07:13:25;2.92;;;1.92;;
64063;SDS011;50314;50.618;10.642;2023-09-19T07:19:12;2.38;;;1.63;;
64063;SDS011;50314;50.618;10.642;2023-09-19T07:21:40;2.17;;;1.55;;
64063;SDS011;50314;50.618;10.642;2023-09-19T07:24:05;1.60;;;1.50;;
64063;SDS011;50314;50.618;10.642;2023-09-19T07:26:33;4.35;;;1.63;;
64063;SDS011;50314;50.618;10.642;2023-09-19T07:28:59;2.67;;;1.80;;
64063;SDS011;50314;50.618;10.642;2023-09-19T07:31:25;2.25;;;1.40;;
64063;SDS011;50314;50.618;10.642;2023-09-19T07:33:52;3.40;;;1.98;;
64063;SDS011;50314;50.618;10.642;2023-09-19T07:36:18;2.53;;;1.52;;
64063;SDS011;50314;50.618;10.642;2023-09-19T07:38:45;2.55;;;1.60;;
64063;SDS011;50314;50.618;10.642;2023-09-19T07:41:10;3.33;;;3.08;;
64063;SDS011;50314;50.618;10.642;2023-09-19T07:43:36;1.98;;;1.88;;
64063;SDS011;50314;50.618;10.642;2023-09-19T07:46:06;3.05;;;2.67;;
64063;SDS011;50314;50.618;10.642;2023-09-19T07:48:36;4.80;;;3.08;;
64063;SDS011;50314;50.618;10.642;2023-09-19T07:51:03;2.72;;;2.30;;
64063;SDS011;50314;50.618;10.642;2023-09-19T07:56:23;2.55;;;2.35;;
64063;SDS011;50314;50.618;10.642;2023-09-19T07:58:49;2.10;;;1.90;;
64063;SDS011;50314;50.618;10.642;2023-09-19T08:01:15;2.72;;;2.53;;
64063;SDS011;50314;50.618;10.642;2023-09-19T08:03:41;2.75;;;2.55;;
64063;SDS011;50314;50.618;10.642;2023-09-19T08:06:08;3.25;;;2.95;;
64063;SDS011;50314;50.618;10.642;2023-09-19T08:15:19;9.90;;;2.60;;
64063;SDS011;50314;50.618;10.642;2023-09-19T08:17:45;3.53;;;3.22;;
64063;SDS011;50314;50.618;10.642;2023-09-19T08:20:12;2.55;;;2.30;;
64063;SDS011;50314;50.618;10.642;2023-09-19T08:22:51;2.47;;;2.28;;
64063;SDS011;50314;50.618;10.642;2023-09-19T08:25:19;2.17;;;1.63;;
64063;SDS011;50314;50.618;10.642;2023-09-19T08:27:46;2.90;;;2.70;;
64063;SDS011;50314;50.618;10.642;2023-09-19T08:30:14;2.50;;;2.30;;
64063;SDS011;50314;50.618;10.642;2023-09-19T08:35:08;2.47;;;2.28;;
64063;SDS011;50314;50.618;10.642;2023-09-19T08:37:34;2.50;;;2.30;;
64063;SDS011;50314;50.618;10.642;2023-09-19T08:40:00;2.20;;;2.00;;
64063;SDS011;50314;50.618;10.642;2023-09-19T08:45:47;4.18;;;3.88;;
64063;SDS011;50314;50.618;10.642;2023-09-19T08:48:17;3.15;;;2.95;;
64063;SDS011;50314;50.618;10.642;2023-09-19T08:51:03;2.85;;;2.63;;
64063;SDS011;50314;50.618;10.642;2023-09-19T08:56:06;3.00;;;1.98;;
64063;SDS011;50314;50.618;10.642;2023-09-19T08:58:39;2.17;;;2.08;;
64063;SDS011;50314;50.618;10.642;2023-09-19T09:01:18;3.50;;;2.50;;
64063;SDS011;50314;50.618;10.642;2023-09-19T09:03:50;3.30;;;3.00;;
64063;SDS011;50314;50.618;10.642;2023-09-19T09:06:17;2.60;;;2.40;;
64063;SDS011;50314;50.618;10.642;2023-09-19T09:08:45;3.15;;;2.85;;
64063;SDS011;50314;50.618;10.642;2023-09-19T09:11:12;3.10;;;2.80;;
64063;SDS011;50314;50.618;10.642;2023-09-19T09:13:39;2.47;;;2.38;;
64063;SDS011;50314;50.618;10.642;2023-09-19T09:16:06;2.63;;;2.42;;
64063;SDS011;50314;50.618;10.642;2023-09-19T09:18:35;2.60;;;2.40;;
64063;SDS011;50314;50.618;10.642;2023-09-19T09:21:00;2.65;;;2.45;;
64063;SDS011;50314;50.618;10.642;2023-09-19T09:23:26;2.60;;;2.40;;
64063;SDS011;50314;50.618;10.642;2023-09-19T09:25:55;3.33;;;3.13;;
64063;SDS011;50314;50.618;10.642;2023-09-19T09:28:22;2.40;;;2.20;;
64063;SDS011;50314;50.618;10.642;2023-09-19T09:30:52;3.45;;;2.80;;
64063;SDS011;50314;50.618;10.642;2023-09-19T09:33:18;2.10;;;1.90;;
64063;SDS011;50314;50.618;10.642;2023-09-19T09:35:47;3.28;;;3.08;;
64063;SDS011;50314;50.618;10.642;2023-09-19T09:38:22;2.33;;;2.05;;
64063;SDS011;50314;50.618;10.642;2023-09-19T09:40:59;2.17;;;2.05;;
64063;SDS011;50314;50.618;10.642;2023-09-19T09:43:26;2.30;;;1.88;;
64063;SDS011;50314;50.618;10.642;2023-09-19T09:51:39;2.45;;;2.25;;
64063;SDS011;50314;50.618;10.642;2023-09-19T09:54:14;7.10;;;2.85;;
64063;SDS011;50314;50.618;10.642;2023-09-19T09:56:54;6.15;;;2.38;;
64063;SDS011;50314;50.618;10.642;2023-09-19T09:59:42;2.75;;;2.25;;
64063;SDS011;50314;50.618;10.642;2023-09-19T10:02:11;2.50;;;2.30;;
64063;SDS011;50314;50.618;10.642;2023-09-19T10:04:50;3.33;;;3.08;;
64063;SDS011;50314;50.618;10.642;2023-09-19T10:07:27;2.28;;;2.10;;
64063;SDS011;50314;50.618;10.642;2023-09-19T10:09:57;2.92;;;2.63;;
64063;SDS011;50314;50.618;10.642;2023-09-19T10:12:31;3.35;;;2.20;;
64063;SDS011;50314;50.618;10.642;2023-09-19T10:15:00;2.33;;;2.13;;
64063;SDS011;50314;50.618;10.642;2023-09-19T10:17:31;2.47;;;2.28;;
64063;SDS011;50314;50.618;10.642;2023-09-19T10:20:01;3.80;;;2.17;;
64063;SDS011;50314;50.618;10.642;2023-09-19T10:22:34;2.83;;;2.42;;
64063;SDS011;50314;50.618;10.642;2023-09-19T10:25:02;2.88;;;2.17;;
64063;SDS011;50314;50.618;10.642;2023-09-19T10:27:30;1.88;;;1.63;;
64063;SDS011;50314;50.618;10.642;2023-09-19T10:30:02;2.20;;;2.00;;
64063;SDS011;50314;50.618;10.642;2023-09-19T10:32:32;2.60;;;2.40;;
64063;SDS011;50314;50.618;10.642;2023-09-19T10:35:00;2.88;;;2.50;;
64063;SDS011;50314;50.618;10.642;2023-09-19T10:37:30;3.13;;;2.08;;
64063;SDS011;50314;50.618;10.642;2023-09-19T10:39:58;2.78;;;2.58;;
64063;SDS011;50314;50.618;10.642;2023-09-19T10:42:24;3.80;;;2.80;;
64063;SDS011;50314;50.618;10.642;2023-09-19T10:44:54;3.13;;;2.58;;
64063;SDS011;50314;50.618;10.642;2023-09-19T10:47:25;3.88;;;2.45;;
64063;SDS011;50314;50.618;10.642;2023-09-19T10:49:51;4.25;;;2.88;;
64063;SDS011;50314;50.618;10.642;2023-09-19T10:52:19;3.00;;;2.40;;
64063;SDS011;50314;50.618;10.642;2023-09-19T10:54:48;3.10;;;2.65;;
64063;SDS011;50314;50.618;10.642;2023-09-19T10:57:19;3.80;;;2.20;;
64063;SDS011;50314;50.618;10.642;2023-09-19T11:00:07;3.20;;;2.42;;
64063;SDS011;50314;50.618;10.642;2023-09-19T11:08:30;3.38;;;2.08;;
64063;SDS011;50314;50.618;10.642;2023-09-19T11:14:41;3.65;;;2.10;;
64063;SDS011;50314;50.618;10.642;2023-09-19T11:30:31;2.65;;;2.38;;
64063;SDS011;50314;50.618;10.642;2023-09-19T11:46:32;3.28;;;2.05;;
64063;SDS011;50314;50.618;10.642;2023-09-19T11:49:05;3.78;;;2.65;;
64063;SDS011;50314;50.618;10.642;2023-09-19T11:54:10;5.63;;;1.95;;
64063;SDS011;50314;50.618;10.642;2023-09-19T11:56:43;2.33;;;2.10;;
64063;SDS011;50314;50.618;10.642;2023-09-19T11:59:10;2.40;;;2.10;;
64063;SDS011;50314;50.618;10.642;2023-09-19T12:01:37;4.50;;;2.15;;
64063;SDS011;50314;50.618;10.642;2023-09-19T12:04:08;2.28;;;1.90;;
64063;SDS011;50314;50.618;10.642;2023-09-19T12:06:36;3.20;;;2.10;;
64063;SDS011;50314;50.618;10.642;2023-09-19T12:09:07;2.78;;;2.17;;
64063;SDS011;50314;50.618;10.642;2023-09-19T12:11:42;3.13;;;2.30;;
64063;SDS011;50314;50.618;10.642;2023-09-19T12:14:09;1.90;;;1.70;;
64063;SDS011;50314;50.618;10.642;2023-09-19T12:16:35;2.58;;;2.20;;
64063;SDS011;50314;50.618;10.642;2023-09-19T12:24:40;3.05;;;1.88;;
64063;SDS011;50314;50.618;10.642;2023-09-19T12:27:09;2.00;;;1.80;;
64063;SDS011;50314;50.618;10.642;2023-09-19T12:32:09;2.40;;;2.20;;
64063;SDS011;50314;50.618;10.642;2023-09-19T12:34:35;2.70;;;2.00;;
64063;SDS011;50314;50.618;10.642;2023-09-19T12:39:51;2.65;;;2.40;;
64063;SDS011;50314;50.618;10.642;2023-09-19T12:45:42;3.30;;;2.67;;
64063;SDS011;50314;50.618;10.642;2023-09-19T12:53:56;2.38;;;2.00;;
64063;SDS011;50314;50.618;10.642;2023-09-19T12:56:22;2.35;;;1.98;;
64063;SDS011;50314;50.618;10.642;2023-09-19T12:58:54;3.05;;;2.65;;
64063;SDS011;50314;50.618;10.642;2023-09-19T13:01:25;2.35;;;2.00;;
64063;SDS011;50314;50.618;10.642;2023-09-19T13:04:11;4.00;;;2.42;;
64063;SDS011;50314;50.618;10.642;2023-09-19T13:06:44;2.47;;;2.28;;
64063;SDS011;50314;50.618;10.642;2023-09-19T13:09:14;3.67;;;2.50;;
64063;SDS011;50314;50.618;10.642;2023-09-19T13:11:45;3.05;;;2.47;;
64063;SDS011;50314;50.618;10.642;2023-09-19T13:22:41;2.83;;;2.33;;
64063;SDS011;50314;50.618;10.642;2023-09-19T13:25:14;3.55;;;2.65;;
64063;SDS011;50314;50.618;10.642;2023-09-19T13:27:45;3.55;;;2.88;;
64063;SDS011;50314;50.618;10.642;2023-09-19T13:30:13;6.00;;;2.70;;
64063;SDS011;50314;50.618;10.642;2023-09-19T13:32:39;3.42;;;3.08;;
64063;SDS011;50314;50.618;10.642;2023-09-19T13:35:08;4.50;;;2.83;;
64063;SDS011;50314;50.618;10.642;2023-09-19T13:37:38;3.65;;;2.90;;
64063;SDS011;50314;50.618;10.642;2023-09-19T13:40:11;4.00;;;3.30;;
64063;SDS011;50314;50.618;10.642;2023-09-19T13:42:37;3.60;;;2.55;;
64063;SDS011;50314;50.618;10.642;2023-09-19T13:45:03;2.90;;;2.42;;
64063;SDS011;50314;50.618;10.642;2023-09-19T13:50:02;3.72;;;2.50;;
64063;SDS011;50314;50.618;10.642;2023-09-19T13:52:29;2.67;;;1.80;;
64063;SDS011;50314;50.618;10.642;2023-09-19T13:54:59;2.70;;;2.17;;
64063;SDS011;50314;50.618;10.642;2023-09-19T13:57:25;3.03;;;2.13;;
64063;SDS011;50314;50.618;10.642;2023-09-19T13:59:51;3.70;;;2.10;;
64063;SDS011;50314;50.618;10.642;2023-09-19T14:02:17;3.13;;;2.08;;
64063;SDS011;50314;50.618;10.642;2023-09-19T14:04:48;2.33;;;1.80;;
64063;SDS011;50314;50.618;10.642;2023-09-19T14:07:14;2.47;;;1.80;;
64063;SDS011;50314;50.618;10.642;2023-09-19T14:09:40;3.45;;;1.90;;
64063;SDS011;50314;50.618;10.642;2023-09-19T14:12:06;4.10;;;1.83;;
64063;SDS011;50314;50.618;10.642;2023-09-19T14:14:32;2.38;;;1.95;;
64063;SDS011;50314;50.618;10.642;2023-09-19T14:16:58;2.60;;;1.92;;
64063;SDS011;50314;50.618;10.642;2023-09-19T14:19:28;3.17;;;1.65;;
64063;SDS011;50314;50.618;10.642;2023-09-19T14:21:54;4.72;;;2.33;;
64063;SDS011;50314;50.618;10.642;2023-09-19T14:24:29;2.65;;;1.60;;
64063;SDS011;50314;50.618;10.642;2023-09-19T14:27:12;2.53;;;1.60;;
64063;SDS011;50314;50.618;10.642;2023-09-19T14:29:38;2.60;;;1.77;;
64063;SDS011;50314;50.618;10.642;2023-09-19T14:32:04;3.15;;;1.50;;
64063;SDS011;50314;50.618;10.642;2023-09-19T14:34:30;2.22;;;1.60;;
64063;SDS011;50314;50.618;10.642;2023-09-19T14:36:56;2.00;;;1.67;;
64063;SDS011;50314;50.618;10.642;2023-09-19T14:39:22;2.88;;;1.77;;
64063;SDS011;50314;50.618;10.642;2023-09-19T14:41:48;2.75;;;1.95;;
64063;SDS011;50314;50.618;10.642;2023-09-19T14:44:14;1.77;;;1.50;;
64063;SDS011;50314;50.618;10.642;2023-09-19T14:46:41;2.38;;;1.60;;
64063;SDS011;50314;50.618;10.642;2023-09-19T14:49:09;2.10;;;1.50;;
64063;SDS011;50314;50.618;10.642;2023-09-19T14:51:35;2.90;;;1.80;;
64063;SDS011;50314;50.618;10.642;2023-09-19T14:54:00;2.40;;;1.80;;
64063;SDS011;50314;50.618;10.642;2023-09-19T14:56:27;2.17;;;1.27;;
64063;SDS011;50314;50.618;10.642;2023-09-19T14:58:55;2.40;;;1.75;;
64063;SDS011;50314;50.618;10.642;2023-09-19T15:01:20;2.08;;;1.58;;
64063;SDS011;50314;50.618;10.642;2023-09-19T15:03:47;2.75;;;1.83;;
64063;SDS011;50314;50.618;10.642;2023-09-19T15:06:14;2.05;;;1.55;;
64063;SDS011;50314;50.618;10.642;2023-09-19T15:08:42;2.15;;;1.30;;
64063;SDS011;50314;50.618;10.642;2023-09-19T15:11:16;2.33;;;1.60;;
64063;SDS011;50314;50.618;10.642;2023-09-19T15:13:43;2.47;;;1.58;;
64063;SDS011;50314;50.618;10.642;2023-09-19T15:16:09;3.00;;;1.88;;
64063;SDS011;50314;50.618;10.642;2023-09-19T15:18:36;2.75;;;1.70;;
64063;SDS011;50314;50.618;10.642;2023-09-19T15:21:09;2.20;;;1.55;;
64063;SDS011;50314;50.618;10.642;2023-09-19T15:23:36;2.85;;;1.75;;
64063;SDS011;50314;50.618;10.642;2023-09-19T15:26:06;2.10;;;1.63;;
64063;SDS011;50314;50.618;10.642;2023-09-19T15:28:53;4.45;;;2.40;;
64063;SDS011;50314;50.618;10.642;2023-09-19T15:31:19;1.92;;;1.48;;
64063;SDS011;50314;50.618;10.642;2023-09-19T15:33:45;2.70;;;1.77;;
64063;SDS011;50314;50.618;10.642;2023-09-19T15:36:11;1.95;;;1.50;;
64063;SDS011;50314;50.618;10.642;2023-09-19T15:41:23;2.67;;;1.73;;
64063;SDS011;50314;50.618;10.642;2023-09-19T15:43:49;2.53;;;2.00;;
64063;SDS011;50314;50.618;10.642;2023-09-19T15:46:15;2.65;;;1.60;;
64063;SDS011;50314;50.618;10.642;2023-09-19T15:48:41;2.47;;;1.67;;
64063;SDS011;50314;50.618;10.642;2023-09-19T15:51:07;1.88;;;1.30;;
64063;SDS011;50314;50.618;10.642;2023-09-19T15:53:41;2.22;;;1.48;;
64063;SDS011;50314;50.618;10.642;2023-09-19T15:56:15;2.17;;;1.50;;
64063;SDS011;50314;50.618;10.642;2023-09-19T15:58:46;2.72;;;1.70;;
64063;SDS011;50314;50.618;10.642;2023-09-19T16:01:13;2.08;;;1.25;;
64063;SDS011;50314;50.618;10.642;2023-09-19T16:03:42;3.13;;;1.80;;
64063;SDS011;50314;50.618;10.642;2023-09-19T16:06:12;1.88;;;1.40;;
64063;SDS011;50314;50.618;10.642;2023-09-19T16:08:43;1.58;;;1.30;;
64063;SDS011;50314;50.618;10.642;2023-09-19T16:11:10;3.60;;;1.77;;
64063;SDS011;50314;50.618;10.642;2023-09-19T16:13:39;1.92;;;1.38;;
64063;SDS011;50314;50.618;10.642;2023-09-19T16:16:07;2.72;;;2.15;;
64063;SDS011;50314;50.618;10.642;2023-09-19T16:18:33;3.00;;;1.92;;
64063;SDS011;50314;50.618;10.642;2023-09-19T16:21:02;4.40;;;1.88;;
64063;SDS011;50314;50.618;10.642;2023-09-19T16:23:30;3.33;;;1.70;;
64063;SDS011;50314;50.618;10.642;2023-09-19T16:26:05;2.58;;;2.20;;
64063;SDS011;50314;50.618;10.642;2023-09-19T16:28:32;2.70;;;1.40;;
64063;SDS011;50314;50.618;10.642;2023-09-19T16:31:05;3.15;;;2.00;;
64063;SDS011;50314;50.618;10.642;2023-09-19T16:33:32;2.17;;;1.23;;
64063;SDS011;50314;50.618;10.642;2023-09-19T16:35:59;4.32;;;2.00;;
64063;SDS011;50314;50.618;10.642;2023-09-19T16:38:25;3.30;;;1.73;;
64063;SDS011;50314;50.618;10.642;2023-09-19T16:43:22;1.80;;;1.40;;
64063;SDS011;50314;50.618;10.642;2023-09-19T16:45:52;2.65;;;1.92;;
64063;SDS011;50314;50.618;10.642;2023-09-19T16:48:21;3.53;;;2.00;;
64063;SDS011;50314;50.618;10.642;2023-09-19T16:50:50;3.28;;;1.83;;
64063;SDS011;50314;50.618;10.642;2023-09-19T16:53:16;2.85;;;1.92;;
64063;SDS011;50314;50.618;10.642;2023-09-19T16:55:43;2.28;;;1.70;;
64063;SDS011;50314;50.618;10.642;2023-09-19T16:58:12;2.60;;;1.70;;
64063;SDS011;50314;50.618;10.642;2023-09-19T17:00:41;1.80;;;1.38;;
64063;SDS011;50314;50.618;10.642;2023-09-19T17:03:16;2.45;;;1.58;;